createdAt,value
2018-06-01T00:05:21.126Z,13.33
2018-06-01T00:11:26.245Z,16.73
2018-06-01T00:17:30.601Z,15.70
2018-06-01T00:23:34.949Z,14.80
2018-06-01T00:29:40.099Z,18.90
2018-06-01T00:35:44.435Z,16.67
2018-06-01T00:41:48.757Z,23.40
2018-06-01T00:47:53.985Z,20.97
2018-06-01T00:53:58.324Z,22.43
2018-06-01T01:00:02.692Z,21.10
2018-06-01T01:06:07.040Z,22.00
2018-06-01T01:12:11.403Z,18.57
2018-06-01T01:18:15.805Z,26.57
2018-06-01T01:24:20.188Z,19.27
2018-06-01T01:30:24.687Z,21.03
2018-06-01T01:36:29.404Z,25.97
2018-06-01T01:42:34.514Z,21.30
2018-06-01T01:48:38.868Z,21.80
2018-06-01T01:54:43.285Z,25.93
2018-06-01T02:00:47.640Z,26.97
2018-06-01T02:06:52.185Z,23.10
2018-06-01T02:12:56.602Z,21.47
2018-06-01T02:19:00.967Z,21.20
2018-06-01T02:25:05.339Z,23.03
2018-06-01T02:31:09.697Z,25.50
2018-06-01T02:37:14.822Z,28.90
2018-06-01T02:43:19.180Z,22.60
2018-06-01T02:49:23.544Z,20.93
2018-06-01T02:55:28.669Z,21.60
2018-06-01T03:01:33.026Z,21.77
2018-06-01T03:07:37.368Z,22.90
2018-06-01T03:13:42.488Z,25.73
2018-06-01T03:19:46.865Z,22.87
2018-06-01T03:25:51.515Z,20.60
2018-06-01T03:31:56.750Z,25.40
2018-06-01T03:38:01.985Z,23.77
2018-06-01T03:44:07.156Z,28.80
2018-06-01T03:50:11.500Z,25.70
2018-06-01T03:56:15.858Z,22.70
2018-06-01T04:02:21.238Z,29.53
2018-06-01T04:08:25.749Z,30.00
2018-06-01T04:14:30.103Z,25.50
2018-06-01T04:20:34.452Z,22.43
2018-06-01T04:26:38.817Z,30.73
2018-06-01T04:32:43.164Z,26.53
2018-06-01T04:38:47.512Z,29.83
2018-06-01T04:44:52.659Z,25.90
2018-06-01T04:50:57.040Z,23.87
2018-06-01T04:57:01.397Z,21.57
2018-06-01T05:03:05.761Z,24.50
2018-06-01T05:09:10.117Z,24.63
2018-06-01T05:15:14.492Z,29.60
2018-06-01T05:21:18.865Z,32.50
2018-06-01T05:27:24.135Z,30.20
2018-06-01T05:33:29.217Z,25.70
2018-06-01T05:39:33.969Z,30.23
2018-06-01T05:45:38.315Z,32.50
2018-06-01T05:51:42.693Z,25.80
2018-06-01T05:57:47.069Z,44.30
2018-06-01T06:03:51.497Z,29.50
2018-06-01T06:09:55.930Z,20.67
2018-06-01T06:16:00.289Z,24.37
2018-06-01T06:22:04.640Z,24.63
2018-06-01T06:28:08.960Z,26.53
2018-06-01T06:34:13.341Z,24.30
2018-06-01T06:40:17.697Z,25.03
2018-06-01T06:46:22.337Z,22.30
2018-06-01T06:52:26.650Z,20.57
2018-06-01T06:58:31.053Z,29.80
2018-06-01T07:04:35.401Z,19.20
2018-06-01T07:10:39.819Z,21.00
2018-06-01T07:16:44.143Z,21.23
2018-06-01T07:22:48.548Z,20.70
2018-06-01T07:28:52.906Z,22.60
2018-06-01T07:34:57.269Z,18.97
2018-06-01T07:41:01.671Z,20.77
2018-06-01T07:47:06.040Z,19.43
2018-06-01T07:53:10.394Z,18.87
2018-06-01T07:59:14.742Z,19.23
2018-06-01T08:05:19.949Z,21.43
2018-06-01T08:11:24.318Z,20.70
2018-06-01T08:17:29.454Z,23.87
2018-06-01T08:23:33.804Z,20.63
2018-06-01T08:29:38.156Z,18.87
2018-06-01T08:35:43.289Z,26.87
2018-06-01T08:41:47.636Z,27.90
2018-06-01T08:47:52.024Z,20.80
2018-06-01T08:53:56.409Z,15.17
2018-06-01T09:00:00.767Z,22.03
2018-06-01T09:06:05.136Z,20.53
2018-06-01T09:12:10.258Z,17.30
2018-06-01T09:18:14.617Z,19.80
2018-06-01T09:24:19.112Z,20.27
2018-06-01T09:30:24.308Z,23.20
2018-06-01T09:36:28.747Z,28.20
2018-06-01T09:42:33.887Z,24.80
2018-06-01T09:48:38.233Z,23.27
2018-06-01T09:54:42.593Z,24.47
2018-06-01T10:00:52.399Z,10.90
2018-06-01T10:06:57.550Z,11.03
2018-06-01T10:13:01.902Z,8.47
2018-06-01T10:19:06.245Z,11.03
2018-06-01T10:25:10.745Z,10.87
2018-06-01T10:31:15.083Z,9.23
2018-06-01T10:37:20.166Z,8.93
2018-06-01T10:43:24.555Z,10.43
2018-06-01T10:49:28.986Z,9.57
2018-06-01T10:55:33.339Z,9.00
2018-06-01T11:01:37.719Z,11.83
2018-06-01T11:07:42.044Z,8.40
2018-06-01T11:13:47.192Z,10.50
2018-06-01T11:19:51.496Z,9.03
2018-06-01T11:25:55.857Z,11.70
2018-06-01T11:32:00.227Z,13.80
2018-06-01T11:38:04.568Z,14.70
2018-06-01T11:44:09.039Z,14.60
2018-06-01T11:50:13.492Z,14.77
2018-06-01T11:56:18.786Z,13.40
2018-06-01T12:02:23.153Z,13.70
2018-06-01T12:08:28.296Z,26.13
2018-06-01T12:14:32.682Z,11.17
2018-06-01T12:20:37.068Z,11.70
2018-06-01T12:26:41.561Z,12.07
2018-06-01T12:32:46.024Z,16.30
2018-06-01T12:38:51.249Z,10.90
2018-06-01T12:44:56.320Z,7.10
2018-06-01T12:51:00.712Z,10.57
2018-06-01T12:57:05.835Z,7.67
2018-06-01T13:03:10.181Z,12.10
2018-06-01T13:09:15.343Z,6.73
2018-06-01T13:15:20.705Z,8.23
2018-06-01T13:21:25.034Z,8.30
2018-06-01T13:27:29.417Z,7.67
2018-06-01T13:33:33.771Z,4.40
2018-06-01T13:39:38.128Z,7.53
2018-06-01T13:45:42.496Z,15.13
2018-06-01T13:51:46.844Z,7.10
2018-06-01T13:57:51.254Z,3.53
2018-06-01T14:03:55.593Z,3.70
2018-06-01T14:09:59.947Z,2.80
2018-06-01T14:16:05.061Z,4.07
2018-06-01T14:22:09.411Z,3.00
2018-06-01T14:28:14.519Z,2.60
2018-06-01T14:34:19.625Z,4.33
2018-06-01T14:40:24.017Z,5.13
2018-06-01T14:46:29.138Z,3.93
2018-06-01T14:52:33.584Z,2.33
2018-06-01T14:58:37.922Z,2.07
2018-06-01T15:04:43.287Z,2.00
2018-06-01T15:10:47.658Z,5.23
2018-06-01T15:16:52.416Z,3.43
2018-06-01T15:22:56.816Z,2.23
2018-06-01T15:29:01.175Z,3.13
2018-06-01T15:35:05.947Z,4.17
2018-06-01T15:41:10.277Z,1.90
2018-06-01T15:47:15.438Z,2.70
2018-06-01T15:53:19.811Z,1.80
2018-06-01T15:59:24.964Z,2.33
2018-06-01T16:05:29.385Z,3.20
2018-06-01T16:11:33.729Z,2.20
2018-06-01T16:17:38.067Z,1.80
2018-06-01T16:23:43.177Z,3.80
2018-06-01T16:29:48.298Z,7.00
2018-06-01T16:35:52.638Z,2.00
2018-06-01T16:41:57.754Z,2.33
2018-06-01T16:48:02.105Z,3.40
2018-06-01T16:54:07.222Z,2.40
2018-06-01T17:00:11.565Z,1.73
2018-06-01T17:06:16.672Z,3.70
2018-06-01T17:12:21.329Z,3.03
2018-06-01T17:18:25.650Z,4.40
2018-06-01T17:24:30.083Z,2.17
2018-06-01T17:30:35.199Z,3.33
2018-06-01T17:36:39.541Z,6.47
2018-06-01T17:42:43.886Z,3.07
2018-06-01T17:48:48.256Z,4.33
2018-06-01T17:54:52.634Z,4.27
2018-06-01T18:00:56.986Z,4.20
2018-06-01T18:07:01.303Z,3.30
2018-06-01T18:13:05.703Z,5.23
2018-06-01T18:19:10.818Z,4.80
2018-06-01T18:25:15.161Z,2.23
2018-06-01T18:31:20.269Z,2.73
2018-06-01T18:37:25.424Z,14.47
2018-06-01T18:43:29.769Z,4.60
2018-06-01T18:49:34.128Z,5.10
2018-06-01T18:55:38.481Z,3.73
2018-06-01T19:01:42.845Z,2.30
2018-06-01T19:07:47.960Z,4.40
2018-06-01T19:13:52.421Z,4.57
2018-06-01T19:19:57.553Z,3.30
2018-06-01T19:26:01.898Z,2.57
2018-06-01T19:32:06.250Z,2.73
2018-06-01T19:38:10.688Z,3.23
2018-06-01T19:44:15.063Z,1.93
2018-06-01T19:50:19.455Z,2.43
2018-06-01T19:56:23.802Z,2.50
2018-06-01T20:02:28.151Z,4.87
2018-06-01T20:08:32.497Z,7.20
2018-06-01T20:14:36.837Z,1.70
2018-06-01T20:20:41.185Z,1.77
2018-06-01T20:26:45.908Z,1.70
2018-06-01T20:32:50.255Z,3.67
2018-06-01T20:38:54.604Z,1.60
2018-06-01T20:44:58.952Z,2.23
2018-06-01T20:51:04.073Z,1.97
2018-06-01T20:57:08.420Z,1.70
2018-06-01T21:03:12.765Z,2.47
2018-06-01T21:09:17.109Z,2.00
2018-06-01T21:15:21.462Z,1.50
2018-06-01T21:21:26.587Z,1.70
2018-06-01T21:27:31.760Z,1.87
2018-06-01T21:33:36.113Z,2.43
2018-06-01T21:39:41.240Z,2.17
2018-06-01T21:45:45.549Z,1.80
2018-06-01T21:51:50.795Z,4.83
2018-06-01T21:57:55.188Z,2.20
2018-06-01T22:03:59.539Z,2.10
2018-06-01T22:10:03.888Z,1.67
2018-06-01T22:16:09.027Z,2.53
2018-06-01T22:22:14.303Z,1.77
2018-06-01T22:28:18.679Z,1.80
2018-06-01T22:34:23.956Z,1.50
2018-06-01T22:40:29.073Z,1.90
2018-06-01T22:46:33.383Z,1.73
2018-06-01T22:52:38.765Z,1.97
2018-06-01T22:58:43.349Z,4.73
2018-06-01T23:04:47.684Z,2.07
2018-06-01T23:10:52.791Z,1.40
2018-06-01T23:16:57.094Z,1.50
2018-06-01T23:23:01.967Z,1.63
2018-06-01T23:29:06.310Z,3.30
2018-06-01T23:35:11.417Z,1.43
2018-06-01T23:41:15.764Z,1.30
2018-06-01T23:47:20.119Z,7.27
2018-06-01T23:53:24.488Z,4.80
2018-06-01T23:59:28.853Z,1.53
